sensor_id;sensor_type;location;lat;lon;timestamp;P1;durP1;ratioP1;P2;durP2;ratioP2
79414;SDS011;68864;44.972;19.612;2023-11-19T00:01:38;7.93;;;5.78;;
79414;SDS011;68864;44.972;19.612;2023-11-19T00:04:04;7.18;;;5.35;;
79414;SDS011;68864;44.972;19.612;2023-11-19T00:06:31;5.22;;;4.38;;
79414;SDS011;68864;44.972;19.612;2023-11-19T00:08:57;8.48;;;7.68;;
79414;SDS011;68864;44.972;19.612;2023-11-19T00:11:25;5.53;;;4.45;;
79414;SDS011;68864;44.972;19.612;2023-11-19T00:13:52;9.07;;;5.85;;
79414;SDS011;68864;44.972;19.612;2023-11-19T00:16:18;7.43;;;4.97;;
79414;SDS011;68864;44.972;19.612;2023-11-19T00:18:47;5.88;;;2.47;;
79414;SDS011;68864;44.972;19.612;2023-11-19T00:21:15;8.68;;;5.60;;
79414;SDS011;68864;44.972;19.612;2023-11-19T00:23:41;10.80;;;6.30;;
79414;SDS011;68864;44.972;19.612;2023-11-19T00:26:08;8.60;;;6.60;;
79414;SDS011;68864;44.972;19.612;2023-11-19T00:28:35;10.75;;;2.60;;
79414;SDS011;68864;44.972;19.612;2023-11-19T00:31:04;11.90;;;6.80;;
79414;SDS011;68864;44.972;19.612;2023-11-19T00:33:30;12.10;;;7.70;;
79414;SDS011;68864;44.972;19.612;2023-11-19T00:35:59;11.63;;;5.18;;
79414;SDS011;68864;44.972;19.612;2023-11-19T00:38:25;15.48;;;7.43;;
79414;SDS011;68864;44.972;19.612;2023-11-19T00:40:52;22.98;;;15.15;;
79414;SDS011;68864;44.972;19.612;2023-11-19T00:43:19;22.92;;;11.85;;
79414;SDS011;68864;44.972;19.612;2023-11-19T00:45:47;15.38;;;8.80;;
79414;SDS011;68864;44.972;19.612;2023-11-19T00:48:15;13.02;;;4.57;;
79414;SDS011;68864;44.972;19.612;2023-11-19T00:50:42;11.70;;;7.93;;
79414;SDS011;68864;44.972;19.612;2023-11-19T00:53:11;8.40;;;6.53;;
79414;SDS011;68864;44.972;19.612;2023-11-19T00:55:38;8.60;;;6.22;;
79414;SDS011;68864;44.972;19.612;2023-11-19T00:58:05;6.68;;;1.92;;
79414;SDS011;68864;44.972;19.612;2023-11-19T01:00:32;7.25;;;5.50;;
79414;SDS011;68864;44.972;19.612;2023-11-19T01:03:00;8.43;;;6.05;;
79414;SDS011;68864;44.972;19.612;2023-11-19T01:05:26;11.20;;;6.32;;
79414;SDS011;68864;44.972;19.612;2023-11-19T01:07:53;6.03;;;1.70;;
79414;SDS011;68864;44.972;19.612;2023-11-19T01:10:22;8.05;;;6.60;;
79414;SDS011;68864;44.972;19.612;2023-11-19T01:12:49;6.20;;;1.88;;
79414;SDS011;68864;44.972;19.612;2023-11-19T01:17:44;5.45;;;4.05;;
79414;SDS011;68864;44.972;19.612;2023-11-19T01:20:11;6.28;;;4.93;;
79414;SDS011;68864;44.972;19.612;2023-11-19T01:22:39;4.40;;;1.25;;
79414;SDS011;68864;44.972;19.612;2023-11-19T01:25:06;7.28;;;6.57;;
79414;SDS011;68864;44.972;19.612;2023-11-19T01:27:35;6.03;;;2.13;;
79414;SDS011;68864;44.972;19.612;2023-11-19T01:30:02;6.00;;;4.75;;
79414;SDS011;68864;44.972;19.612;2023-11-19T01:32:29;4.65;;;1.92;;
79414;SDS011;68864;44.972;19.612;2023-11-19T01:34:56;11.00;;;8.02;;
79414;SDS011;68864;44.972;19.612;2023-11-19T01:37:23;5.35;;;1.35;;
79414;SDS011;68864;44.972;19.612;2023-11-19T01:39:49;5.38;;;4.45;;
79414;SDS011;68864;44.972;19.612;2023-11-19T01:42:16;6.55;;;5.35;;
79414;SDS011;68864;44.972;19.612;2023-11-19T01:44:53;7.30;;;6.50;;
79414;SDS011;68864;44.972;19.612;2023-11-19T01:47:23;6.78;;;5.45;;
79414;SDS011;68864;44.972;19.612;2023-11-19T01:49:51;6.60;;;5.53;;
79414;SDS011;68864;44.972;19.612;2023-11-19T01:52:18;9.18;;;6.53;;
79414;SDS011;68864;44.972;19.612;2023-11-19T01:54:46;7.25;;;5.20;;
79414;SDS011;68864;44.972;19.612;2023-11-19T01:57:13;7.82;;;2.08;;
79414;SDS011;68864;44.972;19.612;2023-11-19T01:59:42;8.05;;;5.10;;
79414;SDS011;68864;44.972;19.612;2023-11-19T02:02:11;10.23;;;6.00;;
79414;SDS011;68864;44.972;19.612;2023-11-19T02:04:38;10.15;;;6.72;;
79414;SDS011;68864;44.972;19.612;2023-11-19T02:07:06;12.30;;;8.90;;
79414;SDS011;68864;44.972;19.612;2023-11-19T02:09:34;11.90;;;7.65;;
79414;SDS011;68864;44.972;19.612;2023-11-19T02:12:01;13.23;;;7.93;;
79414;SDS011;68864;44.972;19.612;2023-11-19T02:14:27;13.43;;;9.15;;
79414;SDS011;68864;44.972;19.612;2023-11-19T02:16:55;10.00;;;6.72;;
79414;SDS011;68864;44.972;19.612;2023-11-19T02:19:23;10.07;;;7.70;;
79414;SDS011;68864;44.972;19.612;2023-11-19T02:21:50;11.77;;;6.88;;
79414;SDS011;68864;44.972;19.612;2023-11-19T02:24:16;8.07;;;3.05;;
79414;SDS011;68864;44.972;19.612;2023-11-19T02:26:50;8.88;;;7.07;;
79414;SDS011;68864;44.972;19.612;2023-11-19T02:29:26;8.15;;;2.88;;
79414;SDS011;68864;44.972;19.612;2023-11-19T02:31:53;8.63;;;6.55;;
79414;SDS011;68864;44.972;19.612;2023-11-19T02:34:20;8.48;;;6.38;;
79414;SDS011;68864;44.972;19.612;2023-11-19T02:39:15;8.57;;;6.63;;
79414;SDS011;68864;44.972;19.612;2023-11-19T02:41:46;8.13;;;2.80;;
79414;SDS011;68864;44.972;19.612;2023-11-19T02:44:16;7.93;;;2.85;;
79414;SDS011;68864;44.972;19.612;2023-11-19T02:46:44;12.32;;;6.63;;
79414;SDS011;68864;44.972;19.612;2023-11-19T02:49:13;13.65;;;9.68;;
79414;SDS011;68864;44.972;19.612;2023-11-19T02:51:40;8.68;;;3.78;;
79414;SDS011;68864;44.972;19.612;2023-11-19T02:54:07;9.48;;;6.65;;
79414;SDS011;68864;44.972;19.612;2023-11-19T02:56:33;10.95;;;7.80;;
79414;SDS011;68864;44.972;19.612;2023-11-19T02:59:02;11.65;;;7.32;;
79414;SDS011;68864;44.972;19.612;2023-11-19T03:01:34;12.15;;;8.55;;
79414;SDS011;68864;44.972;19.612;2023-11-19T03:04:02;9.68;;;6.78;;
79414;SDS011;68864;44.972;19.612;2023-11-19T03:06:29;9.32;;;6.88;;
79414;SDS011;68864;44.972;19.612;2023-11-19T03:08:57;9.40;;;4.10;;
79414;SDS011;68864;44.972;19.612;2023-11-19T03:11:22;10.75;;;7.00;;
79414;SDS011;68864;44.972;19.612;2023-11-19T03:13:49;9.88;;;6.97;;
79414;SDS011;68864;44.972;19.612;2023-11-19T03:16:16;6.00;;;2.58;;
79414;SDS011;68864;44.972;19.612;2023-11-19T03:18:43;10.82;;;6.47;;
79414;SDS011;68864;44.972;19.612;2023-11-19T03:21:11;9.25;;;6.43;;
79414;SDS011;68864;44.972;19.612;2023-11-19T03:23:38;9.23;;;6.90;;
79414;SDS011;68864;44.972;19.612;2023-11-19T03:26:06;9.35;;;6.32;;
79414;SDS011;68864;44.972;19.612;2023-11-19T03:28:33;11.02;;;6.50;;
79414;SDS011;68864;44.972;19.612;2023-11-19T03:31:00;10.85;;;6.07;;
79414;SDS011;68864;44.972;19.612;2023-11-19T03:33:27;7.97;;;4.53;;
79414;SDS011;68864;44.972;19.612;2023-11-19T03:35:54;8.77;;;6.22;;
79414;SDS011;68864;44.972;19.612;2023-11-19T03:38:23;11.73;;;4.80;;
79414;SDS011;68864;44.972;19.612;2023-11-19T03:40:50;11.60;;;8.25;;
79414;SDS011;68864;44.972;19.612;2023-11-19T03:43:17;10.85;;;7.93;;
79414;SDS011;68864;44.972;19.612;2023-11-19T03:45:45;16.08;;;10.20;;
79414;SDS011;68864;44.972;19.612;2023-11-19T03:48:12;13.15;;;7.53;;
79414;SDS011;68864;44.972;19.612;2023-11-19T03:50:41;14.90;;;7.88;;
79414;SDS011;68864;44.972;19.612;2023-11-19T03:53:07;13.82;;;8.32;;
79414;SDS011;68864;44.972;19.612;2023-11-19T03:55:36;12.05;;;8.07;;
79414;SDS011;68864;44.972;19.612;2023-11-19T03:58:02;17.52;;;9.40;;
79414;SDS011;68864;44.972;19.612;2023-11-19T04:00:29;16.00;;;9.98;;
79414;SDS011;68864;44.972;19.612;2023-11-19T04:02:56;14.23;;;8.25;;
79414;SDS011;68864;44.972;19.612;2023-11-19T04:05:23;16.73;;;9.50;;
79414;SDS011;68864;44.972;19.612;2023-11-19T04:07:50;14.65;;;7.70;;
79414;SDS011;68864;44.972;19.612;2023-11-19T04:10:17;18.60;;;6.47;;
79414;SDS011;68864;44.972;19.612;2023-11-19T04:12:45;12.27;;;4.78;;
79414;SDS011;68864;44.972;19.612;2023-11-19T04:15:12;13.88;;;8.82;;
79414;SDS011;68864;44.972;19.612;2023-11-19T04:17:40;16.50;;;9.52;;
79414;SDS011;68864;44.972;19.612;2023-11-19T04:20:07;14.43;;;8.23;;
79414;SDS011;68864;44.972;19.612;2023-11-19T04:22:37;17.95;;;10.90;;
79414;SDS011;68864;44.972;19.612;2023-11-19T04:25:04;20.50;;;11.48;;
79414;SDS011;68864;44.972;19.612;2023-11-19T04:29:59;21.38;;;10.98;;
79414;SDS011;68864;44.972;19.612;2023-11-19T04:32:27;17.70;;;10.07;;
79414;SDS011;68864;44.972;19.612;2023-11-19T04:34:54;16.55;;;9.73;;
79414;SDS011;68864;44.972;19.612;2023-11-19T04:37:21;18.85;;;11.38;;
79414;SDS011;68864;44.972;19.612;2023-11-19T04:39:47;18.70;;;10.60;;
79414;SDS011;68864;44.972;19.612;2023-11-19T04:42:14;19.08;;;8.90;;
79414;SDS011;68864;44.972;19.612;2023-11-19T04:44:42;16.00;;;5.20;;
79414;SDS011;68864;44.972;19.612;2023-11-19T04:47:11;14.75;;;9.07;;
79414;SDS011;68864;44.972;19.612;2023-11-19T04:49:39;16.58;;;9.32;;
79414;SDS011;68864;44.972;19.612;2023-11-19T04:52:07;15.43;;;8.52;;
79414;SDS011;68864;44.972;19.612;2023-11-19T04:54:34;25.92;;;12.65;;
79414;SDS011;68864;44.972;19.612;2023-11-19T04:57:01;31.58;;;14.80;;
79414;SDS011;68864;44.972;19.612;2023-11-19T04:59:28;25.13;;;12.77;;
79414;SDS011;68864;44.972;19.612;2023-11-19T05:01:55;29.25;;;9.82;;
79414;SDS011;68864;44.972;19.612;2023-11-19T05:04:24;37.08;;;16.25;;
79414;SDS011;68864;44.972;19.612;2023-11-19T05:06:51;33.15;;;14.60;;
79414;SDS011;68864;44.972;19.612;2023-11-19T05:09:18;30.90;;;11.48;;
79414;SDS011;68864;44.972;19.612;2023-11-19T05:11:45;48.83;;;21.85;;
79414;SDS011;68864;44.972;19.612;2023-11-19T05:14:12;55.17;;;25.63;;
79414;SDS011;68864;44.972;19.612;2023-11-19T05:16:39;41.58;;;20.88;;
79414;SDS011;68864;44.972;19.612;2023-11-19T05:19:06;38.35;;;18.42;;
79414;SDS011;68864;44.972;19.612;2023-11-19T05:21:34;34.05;;;13.05;;
79414;SDS011;68864;44.972;19.612;2023-11-19T05:24:01;36.95;;;18.92;;
79414;SDS011;68864;44.972;19.612;2023-11-19T05:26:30;30.50;;;13.98;;
79414;SDS011;68864;44.972;19.612;2023-11-19T05:28:56;30.77;;;16.55;;
79414;SDS011;68864;44.972;19.612;2023-11-19T05:31:23;44.88;;;21.65;;
79414;SDS011;68864;44.972;19.612;2023-11-19T05:33:50;48.42;;;25.15;;
79414;SDS011;68864;44.972;19.612;2023-11-19T05:36:17;41.85;;;20.20;;
79414;SDS011;68864;44.972;19.612;2023-11-19T05:38:45;34.78;;;18.00;;
79414;SDS011;68864;44.972;19.612;2023-11-19T05:41:12;36.67;;;19.85;;
79414;SDS011;68864;44.972;19.612;2023-11-19T05:43:38;27.23;;;13.45;;
79414;SDS011;68864;44.972;19.612;2023-11-19T05:46:06;18.77;;;11.20;;
79414;SDS011;68864;44.972;19.612;2023-11-19T05:48:34;19.58;;;9.77;;
79414;SDS011;68864;44.972;19.612;2023-11-19T05:51:00;24.65;;;14.80;;
79414;SDS011;68864;44.972;19.612;2023-11-19T05:53:28;24.77;;;10.20;;
79414;SDS011;68864;44.972;19.612;2023-11-19T05:55:56;29.13;;;15.85;;
79414;SDS011;68864;44.972;19.612;2023-11-19T05:58:23;25.73;;;16.23;;
79414;SDS011;68864;44.972;19.612;2023-11-19T06:00:53;29.45;;;16.80;;
79414;SDS011;68864;44.972;19.612;2023-11-19T06:03:20;34.30;;;18.85;;
79414;SDS011;68864;44.972;19.612;2023-11-19T06:05:47;21.70;;;10.30;;
79414;SDS011;68864;44.972;19.612;2023-11-19T06:08:14;22.02;;;13.18;;
79414;SDS011;68864;44.972;19.612;2023-11-19T06:10:41;14.60;;;8.75;;
79414;SDS011;68864;44.972;19.612;2023-11-19T06:13:12;17.08;;;11.48;;
79414;SDS011;68864;44.972;19.612;2023-11-19T06:15:40;14.90;;;9.68;;
79414;SDS011;68864;44.972;19.612;2023-11-19T06:18:07;13.55;;;7.03;;
79414;SDS011;68864;44.972;19.612;2023-11-19T06:20:35;12.48;;;6.85;;
79414;SDS011;68864;44.972;19.612;2023-11-19T06:23:01;24.92;;;19.25;;
79414;SDS011;68864;44.972;19.612;2023-11-19T06:25:28;35.72;;;22.48;;
79414;SDS011;68864;44.972;19.612;2023-11-19T06:27:55;27.00;;;19.25;;
79414;SDS011;68864;44.972;19.612;2023-11-19T06:30:23;27.27;;;20.55;;
79414;SDS011;68864;44.972;19.612;2023-11-19T06:32:51;26.65;;;23.70;;
79414;SDS011;68864;44.972;19.612;2023-11-19T06:35:17;26.63;;;18.70;;
79414;SDS011;68864;44.972;19.612;2023-11-19T06:37:44;17.40;;;11.18;;
79414;SDS011;68864;44.972;19.612;2023-11-19T06:40:11;23.88;;;19.60;;
79414;SDS011;68864;44.972;19.612;2023-11-19T06:42:40;24.05;;;12.57;;
79414;SDS011;68864;44.972;19.612;2023-11-19T06:45:07;17.38;;;11.00;;
79414;SDS011;68864;44.972;19.612;2023-11-19T06:50:03;39.05;;;25.05;;
79414;SDS011;68864;44.972;19.612;2023-11-19T06:52:31;37.25;;;19.73;;
79414;SDS011;68864;44.972;19.612;2023-11-19T06:54:57;29.17;;;16.27;;
79414;SDS011;68864;44.972;19.612;2023-11-19T06:57:24;27.10;;;14.15;;
79414;SDS011;68864;44.972;19.612;2023-11-19T06:59:51;26.83;;;16.35;;
79414;SDS011;68864;44.972;19.612;2023-11-19T07:02:18;18.65;;;10.10;;
79414;SDS011;68864;44.972;19.612;2023-11-19T07:04:46;18.77;;;15.70;;
79414;SDS011;68864;44.972;19.612;2023-11-19T07:07:13;16.60;;;13.40;;
79414;SDS011;68864;44.972;19.612;2023-11-19T07:09:40;19.52;;;11.13;;
79414;SDS011;68864;44.972;19.612;2023-11-19T07:12:07;23.35;;;18.90;;
79414;SDS011;68864;44.972;19.612;2023-11-19T07:14:34;18.38;;;10.75;;
79414;SDS011;68864;44.972;19.612;2023-11-19T07:17:01;29.77;;;22.33;;
79414;SDS011;68864;44.972;19.612;2023-11-19T07:19:28;16.40;;;9.20;;
79414;SDS011;68864;44.972;19.612;2023-11-19T07:21:57;14.27;;;7.03;;
79414;SDS011;68864;44.972;19.612;2023-11-19T07:24:23;17.75;;;13.45;;
79414;SDS011;68864;44.972;19.612;2023-11-19T07:26:52;16.10;;;11.65;;
79414;SDS011;68864;44.972;19.612;2023-11-19T07:29:19;19.10;;;6.00;;
79414;SDS011;68864;44.972;19.612;2023-11-19T07:31:47;10.32;;;7.10;;
79414;SDS011;68864;44.972;19.612;2023-11-19T07:34:14;10.77;;;7.13;;
79414;SDS011;68864;44.972;19.612;2023-11-19T07:36:41;14.57;;;9.18;;
79414;SDS011;68864;44.972;19.612;2023-11-19T07:39:09;10.75;;;7.57;;
79414;SDS011;68864;44.972;19.612;2023-11-19T07:41:36;22.33;;;12.98;;
79414;SDS011;68864;44.972;19.612;2023-11-19T07:46:30;9.75;;;6.43;;
79414;SDS011;68864;44.972;19.612;2023-11-19T07:48:57;13.63;;;11.52;;
79414;SDS011;68864;44.972;19.612;2023-11-19T07:53:50;16.45;;;8.98;;
79414;SDS011;68864;44.972;19.612;2023-11-19T07:58:45;11.30;;;5.70;;
79414;SDS011;68864;44.972;19.612;2023-11-19T08:01:15;9.95;;;5.65;;
79414;SDS011;68864;44.972;19.612;2023-11-19T08:03:42;12.85;;;6.45;;
79414;SDS011;68864;44.972;19.612;2023-11-19T08:06:09;9.23;;;5.60;;
79414;SDS011;68864;44.972;19.612;2023-11-19T08:08:35;14.55;;;5.95;;
79414;SDS011;68864;44.972;19.612;2023-11-19T08:11:03;14.55;;;7.60;;
79414;SDS011;68864;44.972;19.612;2023-11-19T08:13:32;11.27;;;7.30;;
79414;SDS011;68864;44.972;19.612;2023-11-19T08:15:59;11.55;;;7.10;;
79414;SDS011;68864;44.972;19.612;2023-11-19T08:18:26;23.08;;;16.17;;
79414;SDS011;68864;44.972;19.612;2023-11-19T08:20:53;9.95;;;6.30;;
79414;SDS011;68864;44.972;19.612;2023-11-19T08:23:21;11.05;;;9.95;;
79414;SDS011;68864;44.972;19.612;2023-11-19T08:25:50;9.77;;;6.75;;
79414;SDS011;68864;44.972;19.612;2023-11-19T08:28:17;7.15;;;5.07;;
79414;SDS011;68864;44.972;19.612;2023-11-19T08:30:45;10.20;;;5.95;;
79414;SDS011;68864;44.972;19.612;2023-11-19T08:33:12;7.95;;;6.68;;
79414;SDS011;68864;44.972;19.612;2023-11-19T08:35:40;5.47;;;3.60;;
79414;SDS011;68864;44.972;19.612;2023-11-19T08:38:07;7.25;;;5.35;;
79414;SDS011;68864;44.972;19.612;2023-11-19T08:40:33;8.25;;;5.55;;
79414;SDS011;68864;44.972;19.612;2023-11-19T08:43:00;10.15;;;7.07;;
79414;SDS011;68864;44.972;19.612;2023-11-19T08:45:27;9.50;;;6.57;;
79414;SDS011;68864;44.972;19.612;2023-11-19T08:47:55;11.23;;;8.52;;
79414;SDS011;68864;44.972;19.612;2023-11-19T08:50:22;11.57;;;6.90;;
79414;SDS011;68864;44.972;19.612;2023-11-19T08:52:48;14.93;;;11.52;;
79414;SDS011;68864;44.972;19.612;2023-11-19T08:55:14;12.88;;;9.68;;
79414;SDS011;68864;44.972;19.612;2023-11-19T08:57:41;11.07;;;7.72;;
79414;SDS011;68864;44.972;19.612;2023-11-19T09:00:08;15.18;;;9.20;;
79414;SDS011;68864;44.972;19.612;2023-11-19T09:02:36;11.02;;;6.65;;
79414;SDS011;68864;44.972;19.612;2023-11-19T09:05:05;14.63;;;10.90;;
79414;SDS011;68864;44.972;19.612;2023-11-19T09:07:32;13.43;;;9.35;;
79414;SDS011;68864;44.972;19.612;2023-11-19T09:09:59;14.95;;;10.85;;
79414;SDS011;68864;44.972;19.612;2023-11-19T09:12:26;14.18;;;9.73;;
79414;SDS011;68864;44.972;19.612;2023-11-19T09:14:53;13.82;;;9.32;;
79414;SDS011;68864;44.972;19.612;2023-11-19T09:17:20;13.23;;;8.85;;
79414;SDS011;68864;44.972;19.612;2023-11-19T09:19:46;14.43;;;8.75;;
79414;SDS011;68864;44.972;19.612;2023-11-19T09:22:15;10.85;;;6.57;;
79414;SDS011;68864;44.972;19.612;2023-11-19T09:24:41;18.20;;;8.90;;
79414;SDS011;68864;44.972;19.612;2023-11-19T09:27:09;9.55;;;6.18;;
79414;SDS011;68864;44.972;19.612;2023-11-19T09:29:36;9.25;;;4.10;;
79414;SDS011;68864;44.972;19.612;2023-11-19T09:32:03;7.85;;;5.68;;
79414;SDS011;68864;44.972;19.612;2023-11-19T09:34:31;8.55;;;4.20;;
79414;SDS011;68864;44.972;19.612;2023-11-19T09:39:25;10.35;;;7.85;;
79414;SDS011;68864;44.972;19.612;2023-11-19T09:41:52;5.50;;;2.65;;
79414;SDS011;68864;44.972;19.612;2023-11-19T09:46:46;5.40;;;3.17;;
79414;SDS011;68864;44.972;19.612;2023-11-19T09:49:14;8.43;;;4.57;;
79414;SDS011;68864;44.972;19.612;2023-11-19T09:51:43;5.35;;;2.00;;
79414;SDS011;68864;44.972;19.612;2023-11-19T09:54:09;5.18;;;2.40;;
79414;SDS011;68864;44.972;19.612;2023-11-19T09:56:39;6.35;;;2.50;;
79414;SDS011;68864;44.972;19.612;2023-11-19T09:59:07;13.27;;;10.00;;
79414;SDS011;68864;44.972;19.612;2023-11-19T10:01:35;7.22;;;2.83;;
79414;SDS011;68864;44.972;19.612;2023-11-19T10:04:03;7.63;;;3.65;;
79414;SDS011;68864;44.972;19.612;2023-11-19T10:06:31;7.95;;;3.40;;
79414;SDS011;68864;44.972;19.612;2023-11-19T10:11:25;15.00;;;9.45;;
79414;SDS011;68864;44.972;19.612;2023-11-19T10:13:53;13.75;;;8.02;;
79414;SDS011;68864;44.972;19.612;2023-11-19T10:16:20;9.05;;;3.78;;
79414;SDS011;68864;44.972;19.612;2023-11-19T10:18:54;9.45;;;4.68;;
79414;SDS011;68864;44.972;19.612;2023-11-19T10:21:22;7.22;;;4.40;;
79414;SDS011;68864;44.972;19.612;2023-11-19T10:23:49;6.53;;;2.78;;
79414;SDS011;68864;44.972;19.612;2023-11-19T10:26:17;8.25;;;6.40;;
79414;SDS011;68864;44.972;19.612;2023-11-19T10:28:45;7.25;;;3.75;;
79414;SDS011;68864;44.972;19.612;2023-11-19T10:31:14;8.32;;;3.42;;
79414;SDS011;68864;44.972;19.612;2023-11-19T10:33:41;7.47;;;3.47;;
79414;SDS011;68864;44.972;19.612;2023-11-19T10:36:10;8.73;;;3.53;;
79414;SDS011;68864;44.972;19.612;2023-11-19T10:38:37;9.15;;;3.45;;
79414;SDS011;68864;44.972;19.612;2023-11-19T10:41:04;9.00;;;5.65;;
79414;SDS011;68864;44.972;19.612;2023-11-19T10:43:31;9.35;;;4.32;;
79414;SDS011;68864;44.972;19.612;2023-11-19T10:46:10;11.00;;;8.38;;
79414;SDS011;68864;44.972;19.612;2023-11-19T10:48:39;8.68;;;6.82;;
79414;SDS011;68864;44.972;19.612;2023-11-19T10:51:06;7.88;;;6.25;;
79414;SDS011;68864;44.972;19.612;2023-11-19T10:53:35;9.63;;;8.48;;
79414;SDS011;68864;44.972;19.612;2023-11-19T10:56:06;5.75;;;2.08;;
79414;SDS011;68864;44.972;19.612;2023-11-19T10:58:36;7.65;;;5.40;;
79414;SDS011;68864;44.972;19.612;2023-11-19T11:01:07;15.18;;;10.07;;
79414;SDS011;68864;44.972;19.612;2023-11-19T11:03:42;9.43;;;3.90;;
79414;SDS011;68864;44.972;19.612;2023-11-19T11:06:11;14.77;;;8.75;;
79414;SDS011;68864;44.972;19.612;2023-11-19T11:08:39;12.82;;;9.23;;
79414;SDS011;68864;44.972;19.612;2023-11-19T11:11:07;10.07;;;4.30;;
79414;SDS011;68864;44.972;19.612;2023-11-19T11:13:35;10.18;;;7.18;;
79414;SDS011;68864;44.972;19.612;2023-11-19T11:16:06;9.05;;;6.10;;
79414;SDS011;68864;44.972;19.612;2023-11-19T11:18:34;6.50;;;2.42;;
79414;SDS011;68864;44.972;19.612;2023-11-19T11:21:04;7.65;;;5.55;;
79414;SDS011;68864;44.972;19.612;2023-11-19T11:29:35;7.93;;;3.55;;
79414;SDS011;68864;44.972;19.612;2023-11-19T11:32:08;7.13;;;3.40;;
79414;SDS011;68864;44.972;19.612;2023-11-19T11:35:02;5.88;;;2.70;;
79414;SDS011;68864;44.972;19.612;2023-11-19T11:37:42;6.70;;;2.17;;
79414;SDS011;68864;44.972;19.612;2023-11-19T11:40:13;7.97;;;6.05;;
79414;SDS011;68864;44.972;19.612;2023-11-19T11:42:41;5.10;;;1.73;;
79414;SDS011;68864;44.972;19.612;2023-11-19T11:45:08;6.05;;;2.03;;
79414;SDS011;68864;44.972;19.612;2023-11-19T11:50:34;4.85;;;1.73;;
79414;SDS011;68864;44.972;19.612;2023-11-19T11:53:19;4.88;;;1.33;;
79414;SDS011;68864;44.972;19.612;2023-11-19T11:55:53;6.85;;;3.85;;
79414;SDS011;68864;44.972;19.612;2023-11-19T11:58:26;7.88;;;3.15;;
79414;SDS011;68864;44.972;19.612;2023-11-19T12:00:57;11.40;;;6.60;;
79414;SDS011;68864;44.972;19.612;2023-11-19T12:03:27;6.95;;;2.63;;
79414;SDS011;68864;44.972;19.612;2023-11-19T12:05:55;7.93;;;3.22;;
79414;SDS011;68864;44.972;19.612;2023-11-19T12:08:25;10.45;;;7.88;;
79414;SDS011;68864;44.972;19.612;2023-11-19T12:10:55;6.70;;;2.38;;
79414;SDS011;68864;44.972;19.612;2023-11-19T12:16:24;9.00;;;6.28;;
79414;SDS011;68864;44.972;19.612;2023-11-19T12:18:52;12.02;;;3.50;;
79414;SDS011;68864;44.972;19.612;2023-11-19T12:21:30;10.48;;;3.90;;
79414;SDS011;68864;44.972;19.612;2023-11-19T12:23:59;7.88;;;3.65;;
79414;SDS011;68864;44.972;19.612;2023-11-19T12:26:36;10.23;;;6.40;;
79414;SDS011;68864;44.972;19.612;2023-11-19T12:29:04;9.40;;;6.78;;
79414;SDS011;68864;44.972;19.612;2023-11-19T12:31:31;7.57;;;5.40;;
79414;SDS011;68864;44.972;19.612;2023-11-19T12:34:08;9.38;;;5.82;;
79414;SDS011;68864;44.972;19.612;2023-11-19T12:36:37;9.40;;;6.43;;
79414;SDS011;68864;44.972;19.612;2023-11-19T12:39:11;10.23;;;8.13;;
79414;SDS011;68864;44.972;19.612;2023-11-19T12:41:48;9.20;;;6.95;;
79414;SDS011;68864;44.972;19.612;2023-11-19T12:44:19;6.82;;;2.55;;
79414;SDS011;68864;44.972;19.612;2023-11-19T12:46:46;6.95;;;2.53;;
79414;SDS011;68864;44.972;19.612;2023-11-19T12:49:13;7.82;;;3.53;;
79414;SDS011;68864;44.972;19.612;2023-11-19T12:51:40;8.88;;;2.92;;
79414;SDS011;68864;44.972;19.612;2023-11-19T12:54:06;9.18;;;2.97;;
79414;SDS011;68864;44.972;19.612;2023-11-19T12:56:35;13.77;;;4.85;;
79414;SDS011;68864;44.972;19.612;2023-11-19T12:59:12;10.63;;;4.25;;
79414;SDS011;68864;44.972;19.612;2023-11-19T13:01:39;14.02;;;5.68;;
79414;SDS011;68864;44.972;19.612;2023-11-19T13:04:16;6.95;;;2.10;;
79414;SDS011;68864;44.972;19.612;2023-11-19T13:06:44;6.70;;;2.25;;
79414;SDS011;68864;44.972;19.612;2023-11-19T13:09:21;6.82;;;2.25;;
79414;SDS011;68864;44.972;19.612;2023-11-19T13:11:50;5.30;;;1.35;;
79414;SDS011;68864;44.972;19.612;2023-11-19T13:14:17;8.00;;;3.60;;
79414;SDS011;68864;44.972;19.612;2023-11-19T13:19:11;5.47;;;4.20;;
79414;SDS011;68864;44.972;19.612;2023-11-19T13:21:38;11.02;;;7.95;;
79414;SDS011;68864;44.972;19.612;2023-11-19T13:24:05;7.65;;;6.20;;
79414;SDS011;68864;44.972;19.612;2023-11-19T13:26:32;7.55;;;5.35;;
79414;SDS011;68864;44.972;19.612;2023-11-19T13:31:28;13.15;;;6.80;;
79414;SDS011;68864;44.972;19.612;2023-11-19T13:33:55;13.20;;;6.90;;
79414;SDS011;68864;44.972;19.612;2023-11-19T13:36:23;9.70;;;7.10;;
79414;SDS011;68864;44.972;19.612;2023-11-19T13:38:50;10.52;;;3.08;;
79414;SDS011;68864;44.972;19.612;2023-11-19T13:41:23;8.98;;;5.35;;
79414;SDS011;68864;44.972;19.612;2023-11-19T13:43:50;15.68;;;10.32;;
79414;SDS011;68864;44.972;19.612;2023-11-19T13:46:19;8.05;;;5.32;;
79414;SDS011;68864;44.972;19.612;2023-11-19T13:48:46;13.20;;;7.70;;
79414;SDS011;68864;44.972;19.612;2023-11-19T13:51:14;10.18;;;6.82;;
79414;SDS011;68864;44.972;19.612;2023-11-19T13:53:41;8.38;;;5.43;;
79414;SDS011;68864;44.972;19.612;2023-11-19T13:56:09;10.23;;;5.85;;
79414;SDS011;68864;44.972;19.612;2023-11-19T13:58:35;8.23;;;1.63;;
79414;SDS011;68864;44.972;19.612;2023-11-19T14:01:02;8.30;;;5.93;;
79414;SDS011;68864;44.972;19.612;2023-11-19T14:05:58;9.45;;;6.15;;
79414;SDS011;68864;44.972;19.612;2023-11-19T14:13:20;8.18;;;2.60;;
79414;SDS011;68864;44.972;19.612;2023-11-19T14:15:48;13.85;;;8.68;;
79414;SDS011;68864;44.972;19.612;2023-11-19T14:20:42;11.13;;;6.63;;
79414;SDS011;68864;44.972;19.612;2023-11-19T14:23:09;12.00;;;9.32;;
79414;SDS011;68864;44.972;19.612;2023-11-19T14:25:36;9.73;;;6.28;;
79414;SDS011;68864;44.972;19.612;2023-11-19T14:28:03;12.60;;;7.85;;
79414;SDS011;68864;44.972;19.612;2023-11-19T14:30:30;14.73;;;7.32;;
79414;SDS011;68864;44.972;19.612;2023-11-19T14:32:57;11.15;;;5.80;;
79414;SDS011;68864;44.972;19.612;2023-11-19T14:35:23;8.73;;;5.80;;
79414;SDS011;68864;44.972;19.612;2023-11-19T14:37:51;11.93;;;8.27;;
79414;SDS011;68864;44.972;19.612;2023-11-19T14:40:18;7.38;;;5.30;;
79414;SDS011;68864;44.972;19.612;2023-11-19T14:42:45;7.13;;;5.22;;
79414;SDS011;68864;44.972;19.612;2023-11-19T14:45:12;8.90;;;6.88;;
79414;SDS011;68864;44.972;19.612;2023-11-19T14:47:39;7.25;;;4.78;;
79414;SDS011;68864;44.972;19.612;2023-11-19T14:50:06;9.60;;;7.57;;
79414;SDS011;68864;44.972;19.612;2023-11-19T14:52:34;9.82;;;7.95;;
79414;SDS011;68864;44.972;19.612;2023-11-19T14:55:02;9.60;;;7.53;;
79414;SDS011;68864;44.972;19.612;2023-11-19T14:57:30;11.05;;;3.20;;
79414;SDS011;68864;44.972;19.612;2023-11-19T14:59:57;10.48;;;6.40;;
79414;SDS011;68864;44.972;19.612;2023-11-19T15:02:24;12.57;;;7.25;;
79414;SDS011;68864;44.972;19.612;2023-11-19T15:04:51;15.68;;;10.43;;
79414;SDS011;68864;44.972;19.612;2023-11-19T15:07:17;16.58;;;9.35;;
79414;SDS011;68864;44.972;19.612;2023-11-19T15:09:44;21.88;;;13.35;;
79414;SDS011;68864;44.972;19.612;2023-11-19T15:12:13;21.45;;;12.90;;
79414;SDS011;68864;44.972;19.612;2023-11-19T15:14:40;17.77;;;11.13;;
79414;SDS011;68864;44.972;19.612;2023-11-19T15:17:07;15.23;;;9.73;;
79414;SDS011;68864;44.972;19.612;2023-11-19T15:19:34;16.55;;;9.35;;